sensor_id;sensor_type;location;lat;lon;timestamp;temperature;humidity
24410;DHT22;12543;53.364;-1.504;2022-07-10T00:01:06;18.50;73.60
24410;DHT22;12543;53.364;-1.504;2022-07-10T00:03:33;18.50;73.60
24410;DHT22;12543;53.364;-1.504;2022-07-10T00:06:00;18.40;73.70
24410;DHT22;12543;53.364;-1.504;2022-07-10T00:08:27;18.40;73.70
24410;DHT22;12543;53.364;-1.504;2022-07-10T00:10:56;18.40;73.70
24410;DHT22;12543;53.364;-1.504;2022-07-10T00:13:23;18.40;73.70
24410;DHT22;12543;53.364;-1.504;2022-07-10T00:15:50;18.30;73.70
24410;DHT22;12543;53.364;-1.504;2022-07-10T00:18:17;18.30;73.70
24410;DHT22;12543;53.364;-1.504;2022-07-10T00:20:44;18.30;73.80
24410;DHT22;12543;53.364;-1.504;2022-07-10T00:23:11;18.30;73.80
24410;DHT22;12543;53.364;-1.504;2022-07-10T00:25:38;18.30;73.90
24410;DHT22;12543;53.364;-1.504;2022-07-10T00:28:05;18.30;74.00
24410;DHT22;12543;53.364;-1.504;2022-07-10T00:30:33;18.30;74.00
24410;DHT22;12543;53.364;-1.504;2022-07-10T00:33:00;18.20;73.90
24410;DHT22;12543;53.364;-1.504;2022-07-10T00:35:27;18.20;74.00
24410;DHT22;12543;53.364;-1.504;2022-07-10T00:37:54;18.20;74.00
24410;DHT22;12543;53.364;-1.504;2022-07-10T00:40:22;18.10;74.40
24410;DHT22;12543;53.364;-1.504;2022-07-10T00:42:50;18.10;74.20
24410;DHT22;12543;53.364;-1.504;2022-07-10T00:45:17;18.10;74.20
24410;DHT22;12543;53.364;-1.504;2022-07-10T00:47:44;18.00;74.10
24410;DHT22;12543;53.364;-1.504;2022-07-10T00:50:11;18.00;74.20
24410;DHT22;12543;53.364;-1.504;2022-07-10T00:52:39;18.00;74.20
24410;DHT22;12543;53.364;-1.504;2022-07-10T00:55:07;18.00;74.30
24410;DHT22;12543;53.364;-1.504;2022-07-10T00:57:35;18.00;74.40
24410;DHT22;12543;53.364;-1.504;2022-07-10T01:00:03;18.00;74.40
24410;DHT22;12543;53.364;-1.504;2022-07-10T01:02:30;17.90;74.30
24410;DHT22;12543;53.364;-1.504;2022-07-10T01:04:57;17.90;74.30
24410;DHT22;12543;53.364;-1.504;2022-07-10T01:07:24;17.90;74.40
24410;DHT22;12543;53.364;-1.504;2022-07-10T01:09:52;17.80;74.50
24410;DHT22;12543;53.364;-1.504;2022-07-10T01:12:19;17.90;74.60
24410;DHT22;12543;53.364;-1.504;2022-07-10T01:14:47;17.80;74.50
24410;DHT22;12543;53.364;-1.504;2022-07-10T01:17:14;17.80;74.60
24410;DHT22;12543;53.364;-1.504;2022-07-10T01:19:41;17.80;74.60
24410;DHT22;12543;53.364;-1.504;2022-07-10T01:22:07;17.70;74.60
24410;DHT22;12543;53.364;-1.504;2022-07-10T01:24:35;17.70;74.60
24410;DHT22;12543;53.364;-1.504;2022-07-10T01:27:02;17.70;74.70
24410;DHT22;12543;53.364;-1.504;2022-07-10T01:29:29;17.70;74.80
24410;DHT22;12543;53.364;-1.504;2022-07-10T01:31:56;17.70;74.70
24410;DHT22;12543;53.364;-1.504;2022-07-10T01:34:23;17.60;74.80
24410;DHT22;12543;53.364;-1.504;2022-07-10T01:36:50;17.60;74.80
24410;DHT22;12543;53.364;-1.504;2022-07-10T01:39:17;17.50;74.90
24410;DHT22;12543;53.364;-1.504;2022-07-10T01:41:44;17.50;75.00
24410;DHT22;12543;53.364;-1.504;2022-07-10T01:44:12;17.50;74.80
24410;DHT22;12543;53.364;-1.504;2022-07-10T01:46:45;17.50;75.00
24410;DHT22;12543;53.364;-1.504;2022-07-10T01:49:12;17.40;75.20
24410;DHT22;12543;53.364;-1.504;2022-07-10T01:51:40;17.40;75.10
24410;DHT22;12543;53.364;-1.504;2022-07-10T01:54:07;17.40;75.00
24410;DHT22;12543;53.364;-1.504;2022-07-10T01:56:34;17.40;75.10
24410;DHT22;12543;53.364;-1.504;2022-07-10T01:59:01;17.40;75.00
24410;DHT22;12543;53.364;-1.504;2022-07-10T02:01:30;17.30;75.00
24410;DHT22;12543;53.364;-1.504;2022-07-10T02:03:58;17.30;75.10
24410;DHT22;12543;53.364;-1.504;2022-07-10T02:06:43;17.30;75.10
24410;DHT22;12543;53.364;-1.504;2022-07-10T02:09:11;17.30;75.10
24410;DHT22;12543;53.364;-1.504;2022-07-10T02:11:38;17.30;75.10
24410;DHT22;12543;53.364;-1.504;2022-07-10T02:14:06;17.20;75.10
24410;DHT22;12543;53.364;-1.504;2022-07-10T02:16:35;17.20;75.10
24410;DHT22;12543;53.364;-1.504;2022-07-10T02:19:02;17.20;75.10
24410;DHT22;12543;53.364;-1.504;2022-07-10T02:21:29;17.20;75.20
24410;DHT22;12543;53.364;-1.504;2022-07-10T02:23:56;17.20;75.30
24410;DHT22;12543;53.364;-1.504;2022-07-10T02:26:23;17.20;75.60
24410;DHT22;12543;53.364;-1.504;2022-07-10T02:28:50;17.10;75.40
24410;DHT22;12543;53.364;-1.504;2022-07-10T02:31:18;17.10;75.40
24410;DHT22;12543;53.364;-1.504;2022-07-10T02:33:45;17.10;75.40
24410;DHT22;12543;53.364;-1.504;2022-07-10T02:36:12;17.10;75.20
24410;DHT22;12543;53.364;-1.504;2022-07-10T02:38:39;17.00;75.30
24410;DHT22;12543;53.364;-1.504;2022-07-10T02:41:07;17.00;75.30
24410;DHT22;12543;53.364;-1.504;2022-07-10T02:43:34;17.00;75.40
24410;DHT22;12543;53.364;-1.504;2022-07-10T02:46:01;17.00;75.50
24410;DHT22;12543;53.364;-1.504;2022-07-10T02:48:28;17.00;75.50
24410;DHT22;12543;53.364;-1.504;2022-07-10T02:50:56;16.90;75.40
24410;DHT22;12543;53.364;-1.504;2022-07-10T02:53:23;16.90;75.60
24410;DHT22;12543;53.364;-1.504;2022-07-10T02:55:49;16.90;75.50
24410;DHT22;12543;53.364;-1.504;2022-07-10T02:58:17;16.90;75.40
24410;DHT22;12543;53.364;-1.504;2022-07-10T03:00:44;16.90;75.40
24410;DHT22;12543;53.364;-1.504;2022-07-10T03:03:11;16.80;75.40
24410;DHT22;12543;53.364;-1.504;2022-07-10T03:05:38;16.80;75.40
24410;DHT22;12543;53.364;-1.504;2022-07-10T03:08:05;16.80;76.10
24410;DHT22;12543;53.364;-1.504;2022-07-10T03:10:32;16.70;75.60
24410;DHT22;12543;53.364;-1.504;2022-07-10T03:12:59;16.80;76.10
24410;DHT22;12543;53.364;-1.504;2022-07-10T03:15:26;16.70;76.30
24410;DHT22;12543;53.364;-1.504;2022-07-10T03:17:53;16.70;75.80
24410;DHT22;12543;53.364;-1.504;2022-07-10T03:20:20;16.70;75.90
24410;DHT22;12543;53.364;-1.504;2022-07-10T03:22:47;16.70;75.90
24410;DHT22;12543;53.364;-1.504;2022-07-10T03:25:14;16.70;75.90
24410;DHT22;12543;53.364;-1.504;2022-07-10T03:27:41;16.60;75.90
24410;DHT22;12543;53.364;-1.504;2022-07-10T03:30:08;16.70;76.00
24410;DHT22;12543;53.364;-1.504;2022-07-10T03:32:35;16.60;78.20
24410;DHT22;12543;53.364;-1.504;2022-07-10T03:35:02;16.60;77.40
24410;DHT22;12543;53.364;-1.504;2022-07-10T03:37:30;16.60;76.70
24410;DHT22;12543;53.364;-1.504;2022-07-10T03:39:58;16.60;77.00
24410;DHT22;12543;53.364;-1.504;2022-07-10T03:42:25;16.60;76.70
24410;DHT22;12543;53.364;-1.504;2022-07-10T03:44:52;16.60;76.70
24410;DHT22;12543;53.364;-1.504;2022-07-10T03:47:19;16.60;76.70
24410;DHT22;12543;53.364;-1.504;2022-07-10T03:49:46;16.50;76.40
24410;DHT22;12543;53.364;-1.504;2022-07-10T03:52:13;16.60;76.50
24410;DHT22;12543;53.364;-1.504;2022-07-10T03:54:40;16.50;76.50
24410;DHT22;12543;53.364;-1.504;2022-07-10T03:57:07;16.60;76.40
24410;DHT22;12543;53.364;-1.504;2022-07-10T03:59:52;16.50;76.80
24410;DHT22;12543;53.364;-1.504;2022-07-10T04:02:19;16.50;76.60
24410;DHT22;12543;53.364;-1.504;2022-07-10T04:04:46;16.50;76.50
24410;DHT22;12543;53.364;-1.504;2022-07-10T04:07:13;16.60;76.40
24410;DHT22;12543;53.364;-1.504;2022-07-10T04:09:40;16.50;76.30
24410;DHT22;12543;53.364;-1.504;2022-07-10T04:12:07;16.50;76.70
24410;DHT22;12543;53.364;-1.504;2022-07-10T04:14:35;16.50;76.50
24410;DHT22;12543;53.364;-1.504;2022-07-10T04:17:02;16.50;76.40
24410;DHT22;12543;53.364;-1.504;2022-07-10T04:19:29;16.50;76.50
24410;DHT22;12543;53.364;-1.504;2022-07-10T04:21:56;16.40;76.50
24410;DHT22;12543;53.364;-1.504;2022-07-10T04:24:23;16.50;76.60
24410;DHT22;12543;53.364;-1.504;2022-07-10T04:26:49;16.50;76.40
24410;DHT22;12543;53.364;-1.504;2022-07-10T04:29:16;16.50;76.40
24410;DHT22;12543;53.364;-1.504;2022-07-10T04:31:43;16.40;77.00
24410;DHT22;12543;53.364;-1.504;2022-07-10T04:34:11;16.40;76.20
24410;DHT22;12543;53.364;-1.504;2022-07-10T04:36:37;16.40;76.30
24410;DHT22;12543;53.364;-1.504;2022-07-10T04:39:05;16.40;76.30
24410;DHT22;12543;53.364;-1.504;2022-07-10T04:41:31;16.40;76.70
24410;DHT22;12543;53.364;-1.504;2022-07-10T04:43:58;16.40;76.60
24410;DHT22;12543;53.364;-1.504;2022-07-10T04:46:25;16.40;76.60
24410;DHT22;12543;53.364;-1.504;2022-07-10T04:48:53;16.40;76.50
24410;DHT22;12543;53.364;-1.504;2022-07-10T04:51:20;16.40;76.80
24410;DHT22;12543;53.364;-1.504;2022-07-10T04:53:47;16.50;76.60
24410;DHT22;12543;53.364;-1.504;2022-07-10T04:56:15;16.40;76.60
24410;DHT22;12543;53.364;-1.504;2022-07-10T04:58:42;16.50;76.60
24410;DHT22;12543;53.364;-1.504;2022-07-10T05:01:15;16.50;76.60
24410;DHT22;12543;53.364;-1.504;2022-07-10T05:03:43;16.50;77.20
24410;DHT22;12543;53.364;-1.504;2022-07-10T05:06:10;16.50;76.80
24410;DHT22;12543;53.364;-1.504;2022-07-10T05:08:36;16.50;76.80
24410;DHT22;12543;53.364;-1.504;2022-07-10T05:11:07;16.50;77.00
24410;DHT22;12543;53.364;-1.504;2022-07-10T05:13:34;16.50;76.90
24410;DHT22;12543;53.364;-1.504;2022-07-10T05:16:01;16.60;77.20
24410;DHT22;12543;53.364;-1.504;2022-07-10T05:18:28;16.70;77.80
24410;DHT22;12543;53.364;-1.504;2022-07-10T05:20:55;16.60;77.20
24410;DHT22;12543;53.364;-1.504;2022-07-10T05:23:22;16.70;78.80
24410;DHT22;12543;53.364;-1.504;2022-07-10T05:25:50;16.70;77.90
24410;DHT22;12543;53.364;-1.504;2022-07-10T05:28:17;16.70;77.70
24410;DHT22;12543;53.364;-1.504;2022-07-10T05:30:44;16.70;78.20
24410;DHT22;12543;53.364;-1.504;2022-07-10T05:33:11;16.80;78.40
24410;DHT22;12543;53.364;-1.504;2022-07-10T05:35:38;16.80;78.10
24410;DHT22;12543;53.364;-1.504;2022-07-10T05:38:05;16.90;78.00
24410;DHT22;12543;53.364;-1.504;2022-07-10T05:40:32;16.90;78.00
24410;DHT22;12543;53.364;-1.504;2022-07-10T05:42:59;16.90;78.00
24410;DHT22;12543;53.364;-1.504;2022-07-10T05:45:26;17.00;78.20
24410;DHT22;12543;53.364;-1.504;2022-07-10T05:47:54;17.00;78.30
24410;DHT22;12543;53.364;-1.504;2022-07-10T05:50:21;17.10;78.30
24410;DHT22;12543;53.364;-1.504;2022-07-10T05:52:48;17.10;78.20
24410;DHT22;12543;53.364;-1.504;2022-07-10T05:55:15;17.10;78.20
24410;DHT22;12543;53.364;-1.504;2022-07-10T05:57:42;17.10;78.30
24410;DHT22;12543;53.364;-1.504;2022-07-10T06:00:09;17.20;78.50
24410;DHT22;12543;53.364;-1.504;2022-07-10T06:02:39;17.20;78.40
24410;DHT22;12543;53.364;-1.504;2022-07-10T06:05:06;17.30;78.40
24410;DHT22;12543;53.364;-1.504;2022-07-10T06:07:33;17.30;79.00
24410;DHT22;12543;53.364;-1.504;2022-07-10T06:10:02;17.40;79.20
24410;DHT22;12543;53.364;-1.504;2022-07-10T06:12:29;17.40;80.10
24410;DHT22;12543;53.364;-1.504;2022-07-10T06:14:56;17.40;79.60
24410;DHT22;12543;53.364;-1.504;2022-07-10T06:17:23;17.50;79.60
24410;DHT22;12543;53.364;-1.504;2022-07-10T06:19:50;17.50;79.30
24410;DHT22;12543;53.364;-1.504;2022-07-10T06:22:17;17.50;79.50
24410;DHT22;12543;53.364;-1.504;2022-07-10T06:25:00;17.60;79.50
24410;DHT22;12543;53.364;-1.504;2022-07-10T06:27:27;17.60;79.50
24410;DHT22;12543;53.364;-1.504;2022-07-10T06:29:54;17.70;79.70
24410;DHT22;12543;53.364;-1.504;2022-07-10T06:32:22;17.70;79.80
24410;DHT22;12543;53.364;-1.504;2022-07-10T06:34:49;17.70;80.20
24410;DHT22;12543;53.364;-1.504;2022-07-10T06:37:16;17.80;80.00
24410;DHT22;12543;53.364;-1.504;2022-07-10T06:39:43;17.90;80.10
24410;DHT22;12543;53.364;-1.504;2022-07-10T06:42:10;17.90;79.90
24410;DHT22;12543;53.364;-1.504;2022-07-10T06:44:39;17.90;80.10
24410;DHT22;12543;53.364;-1.504;2022-07-10T06:47:07;18.00;80.10
24410;DHT22;12543;53.364;-1.504;2022-07-10T06:49:53;18.00;80.30
24410;DHT22;12543;53.364;-1.504;2022-07-10T06:52:20;18.00;80.70
24410;DHT22;12543;53.364;-1.504;2022-07-10T06:54:47;18.10;80.70
24410;DHT22;12543;53.364;-1.504;2022-07-10T06:57:14;18.20;80.80
24410;DHT22;12543;53.364;-1.504;2022-07-10T06:59:42;18.20;80.60
24410;DHT22;12543;53.364;-1.504;2022-07-10T07:02:09;18.30;80.60
24410;DHT22;12543;53.364;-1.504;2022-07-10T07:04:36;18.30;80.70
24410;DHT22;12543;53.364;-1.504;2022-07-10T07:07:03;18.30;80.70
24410;DHT22;12543;53.364;-1.504;2022-07-10T07:09:30;18.40;81.00
24410;DHT22;12543;53.364;-1.504;2022-07-10T07:11:57;18.50;81.10
24410;DHT22;12543;53.364;-1.504;2022-07-10T07:14:24;18.50;81.40
24410;DHT22;12543;53.364;-1.504;2022-07-10T07:16:56;18.60;81.30
24410;DHT22;12543;53.364;-1.504;2022-07-10T07:19:25;18.60;81.10
24410;DHT22;12543;53.364;-1.504;2022-07-10T07:21:58;18.70;81.50
24410;DHT22;12543;53.364;-1.504;2022-07-10T07:24:44;18.70;81.20
24410;DHT22;12543;53.364;-1.504;2022-07-10T07:27:11;18.80;81.00
24410;DHT22;12543;53.364;-1.504;2022-07-10T07:29:38;18.80;81.30
24410;DHT22;12543;53.364;-1.504;2022-07-10T07:32:06;18.90;81.40
24410;DHT22;12543;53.364;-1.504;2022-07-10T07:34:33;19.00;81.30
24410;DHT22;12543;53.364;-1.504;2022-07-10T07:37:00;19.00;81.50
24410;DHT22;12543;53.364;-1.504;2022-07-10T07:39:27;19.10;81.50
24410;DHT22;12543;53.364;-1.504;2022-07-10T07:41:54;19.20;81.50
24410;DHT22;12543;53.364;-1.504;2022-07-10T07:44:21;19.20;81.40
24410;DHT22;12543;53.364;-1.504;2022-07-10T07:46:54;19.30;81.50
24410;DHT22;12543;53.364;-1.504;2022-07-10T07:49:21;19.30;81.40
24410;DHT22;12543;53.364;-1.504;2022-07-10T07:51:48;19.40;81.50
24410;DHT22;12543;53.364;-1.504;2022-07-10T07:54:15;19.50;81.70
24410;DHT22;12543;53.364;-1.504;2022-07-10T07:56:42;19.50;81.60
24410;DHT22;12543;53.364;-1.504;2022-07-10T07:59:09;19.50;81.50
24410;DHT22;12543;53.364;-1.504;2022-07-10T08:01:37;19.60;81.50
24410;DHT22;12543;53.364;-1.504;2022-07-10T08:04:04;19.60;81.40
24410;DHT22;12543;53.364;-1.504;2022-07-10T08:06:35;19.70;81.50
24410;DHT22;12543;53.364;-1.504;2022-07-10T08:09:02;19.80;81.40
24410;DHT22;12543;53.364;-1.504;2022-07-10T08:11:30;19.80;81.30
24410;DHT22;12543;53.364;-1.504;2022-07-10T08:13:58;19.90;81.20
24410;DHT22;12543;53.364;-1.504;2022-07-10T08:16:25;19.90;81.40
24410;DHT22;12543;53.364;-1.504;2022-07-10T08:18:52;20.00;81.30
24410;DHT22;12543;53.364;-1.504;2022-07-10T08:21:19;20.10;81.40
24410;DHT22;12543;53.364;-1.504;2022-07-10T08:23:46;20.20;81.40
24410;DHT22;12543;53.364;-1.504;2022-07-10T08:26:13;20.20;81.30
24410;DHT22;12543;53.364;-1.504;2022-07-10T08:28:40;20.30;82.20
24410;DHT22;12543;53.364;-1.504;2022-07-10T08:31:08;20.40;81.20
24410;DHT22;12543;53.364;-1.504;2022-07-10T08:33:41;20.50;81.20
24410;DHT22;12543;53.364;-1.504;2022-07-10T08:36:08;20.60;81.30
24410;DHT22;12543;53.364;-1.504;2022-07-10T08:38:55;20.60;81.10
24410;DHT22;12543;53.364;-1.504;2022-07-10T08:41:24;20.70;81.20
24410;DHT22;12543;53.364;-1.504;2022-07-10T08:43:52;20.80;81.10
24410;DHT22;12543;53.364;-1.504;2022-07-10T08:46:19;20.90;81.30
24410;DHT22;12543;53.364;-1.504;2022-07-10T08:48:47;20.90;81.10
24410;DHT22;12543;53.364;-1.504;2022-07-10T08:51:24;21.00;81.20
24410;DHT22;12543;53.364;-1.504;2022-07-10T08:53:57;21.10;80.90
24410;DHT22;12543;53.364;-1.504;2022-07-10T08:56:35;21.20;81.00
24410;DHT22;12543;53.364;-1.504;2022-07-10T08:59:04;21.20;81.20
24410;DHT22;12543;53.364;-1.504;2022-07-10T09:01:31;21.30;80.80
24410;DHT22;12543;53.364;-1.504;2022-07-10T09:03:59;21.40;80.40
24410;DHT22;12543;53.364;-1.504;2022-07-10T09:06:27;21.40;80.70
24410;DHT22;12543;53.364;-1.504;2022-07-10T09:09:02;21.40;80.90
24410;DHT22;12543;53.364;-1.504;2022-07-10T09:11:30;21.50;80.90
24410;DHT22;12543;53.364;-1.504;2022-07-10T09:13:58;21.60;81.20
24410;DHT22;12543;53.364;-1.504;2022-07-10T09:16:26;21.80;81.00
24410;DHT22;12543;53.364;-1.504;2022-07-10T09:18:55;21.80;80.90
24410;DHT22;12543;53.364;-1.504;2022-07-10T09:21:23;21.90;80.60
24410;DHT22;12543;53.364;-1.504;2022-07-10T09:23:57;22.00;80.80
24410;DHT22;12543;53.364;-1.504;2022-07-10T09:26:25;22.10;81.30
24410;DHT22;12543;53.364;-1.504;2022-07-10T09:29:04;22.30;81.10
24410;DHT22;12543;53.364;-1.504;2022-07-10T09:31:49;22.30;81.00
24410;DHT22;12543;53.364;-1.504;2022-07-10T09:34:17;22.50;81.70
24410;DHT22;12543;53.364;-1.504;2022-07-10T09:36:44;22.60;81.50
24410;DHT22;12543;53.364;-1.504;2022-07-10T09:39:11;22.70;81.10
24410;DHT22;12543;53.364;-1.504;2022-07-10T09:41:38;22.80;81.00
24410;DHT22;12543;53.364;-1.504;2022-07-10T09:44:05;23.00;82.10
24410;DHT22;12543;53.364;-1.504;2022-07-10T09:46:39;23.20;82.70
24410;DHT22;12543;53.364;-1.504;2022-07-10T09:49:10;23.50;85.00
24410;DHT22;12543;53.364;-1.504;2022-07-10T09:54:14;24.50;87.80
24410;DHT22;12543;53.364;-1.504;2022-07-10T09:56:45;25.30;87.90
24410;DHT22;12543;53.364;-1.504;2022-07-10T09:59:17;26.10;89.20
24410;DHT22;12543;53.364;-1.504;2022-07-10T10:04:16;28.00;90.20
24410;DHT22;12543;53.364;-1.504;2022-07-10T10:06:45;29.00;84.10
24410;DHT22;12543;53.364;-1.504;2022-07-10T10:09:15;29.80;79.20
24410;DHT22;12543;53.364;-1.504;2022-07-10T10:11:44;30.50;80.70
24410;DHT22;12543;53.364;-1.504;2022-07-10T10:14:14;31.20;83.10
24410;DHT22;12543;53.364;-1.504;2022-07-10T10:16:43;31.90;83.70
24410;DHT22;12543;53.364;-1.504;2022-07-10T10:19:10;32.50;82.00
24410;DHT22;12543;53.364;-1.504;2022-07-10T10:21:57;33.10;80.00
24410;DHT22;12543;53.364;-1.504;2022-07-10T10:24:25;33.70;79.60
24410;DHT22;12543;53.364;-1.504;2022-07-10T10:26:52;34.20;78.20
24410;DHT22;12543;53.364;-1.504;2022-07-10T10:29:19;34.70;75.60
24410;DHT22;12543;53.364;-1.504;2022-07-10T10:31:46;35.10;72.20
24410;DHT22;12543;53.364;-1.504;2022-07-10T10:34:13;35.40;70.10
24410;DHT22;12543;53.364;-1.504;2022-07-10T10:36:44;35.60;70.60
24410;DHT22;12543;53.364;-1.504;2022-07-10T10:49:17;36.90;66.90
24410;DHT22;12543;53.364;-1.504;2022-07-10T10:54:25;37.40;66.60
24410;DHT22;12543;53.364;-1.504;2022-07-10T11:02:24;38.30;64.20
24410;DHT22;12543;53.364;-1.504;2022-07-10T11:07:53;38.80;64.40
24410;DHT22;12543;53.364;-1.504;2022-07-10T11:10:43;39.10;61.40
24410;DHT22;12543;53.364;-1.504;2022-07-10T11:13:18;39.30;62.50
24410;DHT22;12543;53.364;-1.504;2022-07-10T11:15:46;39.40;61.30
24410;DHT22;12543;53.364;-1.504;2022-07-10T11:18:20;39.50;59.80
24410;DHT22;12543;53.364;-1.504;2022-07-10T11:20:53;39.70;59.30
24410;DHT22;12543;53.364;-1.504;2022-07-10T11:26:01;39.80;57.30
24410;DHT22;12543;53.364;-1.504;2022-07-10T11:31:04;39.90;56.20
24410;DHT22;12543;53.364;-1.504;2022-07-10T11:33:38;39.90;54.50
24410;DHT22;12543;53.364;-1.504;2022-07-10T11:36:09;39.90;55.80
24410;DHT22;12543;53.364;-1.504;2022-07-10T11:38:36;39.90;53.50
24410;DHT22;12543;53.364;-1.504;2022-07-10T11:41:19;40.00;55.00
24410;DHT22;12543;53.364;-1.504;2022-07-10T11:46:30;40.30;56.50
24410;DHT22;12543;53.364;-1.504;2022-07-10T11:48:58;40.50;55.60
24410;DHT22;12543;53.364;-1.504;2022-07-10T11:51:26;40.50;55.50
24410;DHT22;12543;53.364;-1.504;2022-07-10T11:56:21;40.70;54.90
24410;DHT22;12543;53.364;-1.504;2022-07-10T11:58:55;40.80;55.20
24410;DHT22;12543;53.364;-1.504;2022-07-10T12:01:22;40.90;55.50
24410;DHT22;12543;53.364;-1.504;2022-07-10T12:04:01;41.20;56.10
24410;DHT22;12543;53.364;-1.504;2022-07-10T12:06:33;41.30;55.50
24410;DHT22;12543;53.364;-1.504;2022-07-10T12:09:22;41.50;55.40
24410;DHT22;12543;53.364;-1.504;2022-07-10T12:12:03;41.60;54.30
24410;DHT22;12543;53.364;-1.504;2022-07-10T12:14:31;41.80;54.60
24410;DHT22;12543;53.364;-1.504;2022-07-10T12:16:59;41.90;55.00
24410;DHT22;12543;53.364;-1.504;2022-07-10T12:19:27;41.90;53.40
24410;DHT22;12543;53.364;-1.504;2022-07-10T12:21:54;41.90;55.10
24410;DHT22;12543;53.364;-1.504;2022-07-10T12:24:24;41.80;54.90
24410;DHT22;12543;53.364;-1.504;2022-07-10T12:26:51;41.90;54.30
24410;DHT22;12543;53.364;-1.504;2022-07-10T12:29:20;41.80;53.40
24410;DHT22;12543;53.364;-1.504;2022-07-10T12:31:48;41.90;52.20
24410;DHT22;12543;53.364;-1.504;2022-07-10T12:34:16;41.90;53.50
24410;DHT22;12543;53.364;-1.504;2022-07-10T12:36:53;41.70;52.10
24410;DHT22;12543;53.364;-1.504;2022-07-10T12:39:23;41.20;49.10
24410;DHT22;12543;53.364;-1.504;2022-07-10T12:44:43;39.80;50.50
24410;DHT22;12543;53.364;-1.504;2022-07-10T12:47:15;39.10;51.00
24410;DHT22;12543;53.364;-1.504;2022-07-10T12:55:16;38.00;52.50
24410;DHT22;12543;53.364;-1.504;2022-07-10T12:57:52;38.00;53.50
24410;DHT22;12543;53.364;-1.504;2022-07-10T13:00:23;38.00;53.00
24410;DHT22;12543;53.364;-1.504;2022-07-10T13:03:00;37.90;52.20
24410;DHT22;12543;53.364;-1.504;2022-07-10T13:05:28;37.60;52.60
24410;DHT22;12543;53.364;-1.504;2022-07-10T13:10:36;36.70;52.40
24410;DHT22;12543;53.364;-1.504;2022-07-10T13:13:04;36.20;52.00
24410;DHT22;12543;53.364;-1.504;2022-07-10T13:15:32;36.20;53.30
24410;DHT22;12543;53.364;-1.504;2022-07-10T13:18:01;36.10;52.90
24410;DHT22;12543;53.364;-1.504;2022-07-10T13:20:28;36.40;53.10
24410;DHT22;12543;53.364;-1.504;2022-07-10T13:22:55;36.60;51.20
24410;DHT22;12543;53.364;-1.504;2022-07-10T13:25:22;36.70;52.30
24410;DHT22;12543;53.364;-1.504;2022-07-10T13:27:49;36.80;52.10
24410;DHT22;12543;53.364;-1.504;2022-07-10T13:30:18;37.00;52.90
24410;DHT22;12543;53.364;-1.504;2022-07-10T13:32:45;37.10;51.50
24410;DHT22;12543;53.364;-1.504;2022-07-10T13:35:12;37.30;51.30
24410;DHT22;12543;53.364;-1.504;2022-07-10T13:37:39;37.40;51.20
24410;DHT22;12543;53.364;-1.504;2022-07-10T13:40:06;37.60;52.20
24410;DHT22;12543;53.364;-1.504;2022-07-10T13:42:33;37.70;48.00
24410;DHT22;12543;53.364;-1.504;2022-07-10T13:45:00;37.70;46.80
24410;DHT22;12543;53.364;-1.504;2022-07-10T13:47:27;37.70;46.90
24410;DHT22;12543;53.364;-1.504;2022-07-10T13:49:55;37.70;46.60
24410;DHT22;12543;53.364;-1.504;2022-07-10T13:52:22;37.60;47.70
24410;DHT22;12543;53.364;-1.504;2022-07-10T13:54:49;37.40;46.10
24410;DHT22;12543;53.364;-1.504;2022-07-10T13:57:16;37.20;46.00
24410;DHT22;12543;53.364;-1.504;2022-07-10T13:59:43;36.90;47.10
24410;DHT22;12543;53.364;-1.504;2022-07-10T14:02:12;36.60;46.70
24410;DHT22;12543;53.364;-1.504;2022-07-10T14:04:42;36.30;47.20
24410;DHT22;12543;53.364;-1.504;2022-07-10T14:07:09;35.90;47.30
24410;DHT22;12543;53.364;-1.504;2022-07-10T14:09:36;35.60;48.20
24410;DHT22;12543;53.364;-1.504;2022-07-10T14:12:03;35.40;48.50
24410;DHT22;12543;53.364;-1.504;2022-07-10T14:14:31;35.10;48.00
24410;DHT22;12543;53.364;-1.504;2022-07-10T14:16:58;34.80;49.00
24410;DHT22;12543;53.364;-1.504;2022-07-10T14:19:25;34.60;49.20
24410;DHT22;12543;53.364;-1.504;2022-07-10T14:21:52;34.30;48.20
24410;DHT22;12543;53.364;-1.504;2022-07-10T14:24:19;34.00;49.20
24410;DHT22;12543;53.364;-1.504;2022-07-10T14:26:46;33.70;49.40
24410;DHT22;12543;53.364;-1.504;2022-07-10T14:29:13;33.50;49.70
24410;DHT22;12543;53.364;-1.504;2022-07-10T14:31:40;33.30;50.90
24410;DHT22;12543;53.364;-1.504;2022-07-10T14:34:07;33.10;49.60
24410;DHT22;12543;53.364;-1.504;2022-07-10T14:36:34;32.90;50.70
24410;DHT22;12543;53.364;-1.504;2022-07-10T14:39:01;32.70;51.80
24410;DHT22;12543;53.364;-1.504;2022-07-10T14:41:28;32.50;51.00
24410;DHT22;12543;53.364;-1.504;2022-07-10T14:43:55;32.30;51.50
24410;DHT22;12543;53.364;-1.504;2022-07-10T14:46:22;32.20;52.30
24410;DHT22;12543;53.364;-1.504;2022-07-10T14:48:50;32.10;51.90
24410;DHT22;12543;53.364;-1.504;2022-07-10T14:51:17;31.90;52.00
24410;DHT22;12543;53.364;-1.504;2022-07-10T14:53:52;31.80;51.90
24410;DHT22;12543;53.364;-1.504;2022-07-10T14:56:20;31.60;51.80
24410;DHT22;12543;53.364;-1.504;2022-07-10T14:58:47;31.40;51.90
24410;DHT22;12543;53.364;-1.504;2022-07-10T15:01:34;31.20;52.20
24410;DHT22;12543;53.364;-1.504;2022-07-10T15:04:01;31.00;52.50
24410;DHT22;12543;53.364;-1.504;2022-07-10T15:06:28;30.90;52.50
24410;DHT22;12543;53.364;-1.504;2022-07-10T15:08:55;30.70;52.90
24410;DHT22;12543;53.364;-1.504;2022-07-10T15:11:22;30.50;53.00
24410;DHT22;12543;53.364;-1.504;2022-07-10T15:13:49;30.40;53.70
24410;DHT22;12543;53.364;-1.504;2022-07-10T15:16:25;30.30;54.00
24410;DHT22;12543;53.364;-1.504;2022-07-10T15:18:56;30.10;53.60
24410;DHT22;12543;53.364;-1.504;2022-07-10T15:21:23;30.00;54.50
24410;DHT22;12543;53.364;-1.504;2022-07-10T15:23:50;29.90;54.00
24410;DHT22;12543;53.364;-1.504;2022-07-10T15:26:17;29.80;54.50
24410;DHT22;12543;53.364;-1.504;2022-07-10T15:28:44;29.70;54.40
24410;DHT22;12543;53.364;-1.504;2022-07-10T15:31:11;29.60;54.20
24410;DHT22;12543;53.364;-1.504;2022-07-10T15:33:39;29.40;54.60
24410;DHT22;12543;53.364;-1.504;2022-07-10T15:36:11;29.40;54.70
24410;DHT22;12543;53.364;-1.504;2022-07-10T15:38:39;29.30;54.90
24410;DHT22;12543;53.364;-1.504;2022-07-10T15:41:07;29.20;55.20
24410;DHT22;12543;53.364;-1.504;2022-07-10T15:43:35;29.00;55.00
24410;DHT22;12543;53.364;-1.504;2022-07-10T15:46:02;28.90;55.00
24410;DHT22;12543;53.364;-1.504;2022-07-10T15:48:29;28.80;54.70
24410;DHT22;12543;53.364;-1.504;2022-07-10T15:50:56;28.70;55.30
24410;DHT22;12543;53.364;-1.504;2022-07-10T15:53:23;28.70;55.50
24410;DHT22;12543;53.364;-1.504;2022-07-10T15:55:50;28.60;55.40
24410;DHT22;12543;53.364;-1.504;2022-07-10T15:58:17;28.50;55.10
24410;DHT22;12543;53.364;-1.504;2022-07-10T16:00:44;28.40;55.20
24410;DHT22;12543;53.364;-1.504;2022-07-10T16:03:11;28.30;54.90
24410;DHT22;12543;53.364;-1.504;2022-07-10T16:05:38;28.30;55.50
24410;DHT22;12543;53.364;-1.504;2022-07-10T16:08:05;28.10;55.20
24410;DHT22;12543;53.364;-1.504;2022-07-10T16:10:32;28.10;55.70